Aviation Digital Data Service (ADDS)

Output produced by TAFs form (1518 UTC 23 October 2017)
found at http://www.aviationweather.gov/adds/tafs/
 
KSSI 231453Z AUTO 17007KT 7SM SCT025 BKN060 BKN075 26/24 A3002 RMK AO2 SLP167 T02610239 56008
KSSI 231120Z 2312/2412 15010KT P6SM BKN035 OVC200 
     FM231400 15010G15KT P6SM VCSH SCT020 BKN035 OVC050 
     FM231700 18012G18KT 6SM -SHRA VCTS BKN020CB OVC050 
     FM240400 36010KT P6SM VCSH OVC020